Picture Butte, Canada
Current Conditions -  °F | °C
As of 12:00 AM on Saturday 25 Oct 2014 (Local Time) from CYQL Reporting Station
Broken Clouds Broken Clouds  
Wind Chill:   Ceiling: 14000
Heat Index:   Visibility: 9mi
Dew Point: -1°   Wind: 8mph
Humidity: 70%   Direction: 220°SW
Pressure: 30.06"   Gusts: NA
Location:  49.87°N, 112.78°W
Report Text: CYQL 250600Z AUTO 22007KT 9SM BKN140 BKN170 04/M01 A3006 RMK SLP194
Loading
Personal Weather Stations






























Interactive Weather Map
Tropical Storm Tracking
New forecast layout! Learn more

10-Day Weather Forecast

Advertisements
Track Severe Weather on mobile